Time;durP1;ratioP1;P1;durP2;ratioP2;P2;SDS_P1;SDS_P2;PMS_P1;PMS_P2;Temp;Humidity;BMP_temperature;BMP_pressure;BME280_temperature;BME280_humidity;BME280_pressure;Samples;Min_cycle;Max_cycle;Signal;HPM_P1;HPM_P2
2021/12/27 00:01:07;;;;;;;77.40;34.40;;;;;;;-6.56;66.95;100580.49;103188;1317;22759;-80
2021/12/27 00:03:34;;;;;;;73.50;35.40;;;;;;;-6.49;66.97;100577.83;103700;1317;25449;-82
2021/12/27 00:06:01;;;;;;;76.40;38.30;;;;;;;-6.47;66.81;100575.04;103364;1317;24223;-83
2021/12/27 00:08:28;;;;;;;81.90;34.50;;;;;;;-6.46;66.51;100575.11;103772;1317;24803;-81
2021/12/27 00:10:55;;;;;;;74.60;33.50;;;;;;;-6.49;66.51;100573.91;103337;1322;22919;-80
2021/12/27 00:13:22;;;;;;;63.90;32.00;;;;;;;-6.47;66.45;100575.23;103192;1320;22570;-83
2021/12/27 00:15:50;;;;;;;70.40;33.50;;;;;;;-6.43;66.49;100577.30;103110;1322;22675;-80
2021/12/27 00:18:17;;;;;;;70.20;34.30;;;;;;;-6.42;66.38;100573.11;103012;1318;22650;-81
2021/12/27 00:20:44;;;;;;;75.40;35.80;;;;;;;-6.41;66.23;100571.27;103168;1322;22598;-84
2021/12/27 00:23:11;;;;;;;69.20;33.50;;;;;;;-6.42;66.12;100575.34;102384;1330;25401;-84
2021/12/27 00:25:38;;;;;;;72.50;35.70;;;;;;;-6.43;66.05;100575.41;102776;1328;22685;-79
2021/12/27 00:28:05;;;;;;;68.10;34.90;;;;;;;-6.49;65.88;100577.36;102506;1329;22933;-79
2021/12/27 00:30:32;;;;;;;74.60;35.60;;;;;;;-6.54;65.72;100579.58;103033;1323;25346;-78
2021/12/27 00:32:59;;;;;;;71.50;32.70;;;;;;;-6.64;65.81;100580.64;103030;1323;24430;-79
2021/12/27 00:35:28;;;;;;;72.90;36.20;;;;;;;-6.70;65.89;100581.80;103002;1323;22628;-77
2021/12/27 00:37:55;;;;;;;79.80;36.90;;;;;;;-6.74;65.93;100581.11;103039;1323;22699;-80
2021/12/27 00:40:22;;;;;;;73.00;37.00;;;;;;;-6.73;66.11;100589.05;103030;1323;22571;-79
2021/12/27 00:42:50;;;;;;;76.60;36.80;;;;;;;-6.68;66.04;100587.63;103558;1317;22569;-79
2021/12/27 00:45:20;;;;;;;76.30;35.30;;;;;;;-6.69;66.00;100590.77;103605;1317;26048;-78
2021/12/27 00:47:49;;;;;;;79.00;36.90;;;;;;;-6.68;66.10;100590.89;103619;1317;22532;-78
2021/12/27 00:50:17;;;;;;;73.90;37.10;;;;;;;-6.71;65.89;100591.87;103298;1317;22577;-80
2021/12/27 00:52:43;;;;;;;75.70;35.80;;;;;;;-6.73;66.10;100592.13;103514;1316;22580;-80
2021/12/27 00:55:12;;;;;;;77.30;35.30;;;;;;;-6.78;65.74;100594.19;103660;1316;24106;-80
2021/12/27 00:57:39;;;;;;;81.60;35.50;;;;;;;-6.79;66.23;100592.91;103728;1316;22582;-80
2021/12/27 01:00:11;;;;;;;78.20;35.90;;;;;;;-6.73;66.19;100588.69;103575;1316;25664;-80
2021/12/27 01:02:39;;;;;;;66.00;32.50;;;;;;;-6.76;65.83;100587.48;103950;1317;24212;-80
2021/12/27 01:05:07;;;;;;;73.60;34.00;;;;;;;-6.83;65.83;100589.08;103557;1316;22652;-80
2021/12/27 01:07:35;;;;;;;79.40;37.40;;;;;;;-6.84;65.96;100589.20;103577;1316;25233;-80
2021/12/27 01:18:06;;;;;;;67.90;33.00;;;;;;;-6.97;65.82;100585.44;102598;1327;24256;-80
2021/12/27 01:20:35;;;;;;;84.30;38.70;;;;;;;-6.98;65.97;100588.66;102561;1328;22586;-82
2021/12/27 01:23:03;;;;;;;70.20;33.50;;;;;;;-7.03;66.03;100590.38;102624;1327;24698;-79
2021/12/27 01:25:30;;;;;;;79.30;38.80;;;;;;;-7.05;65.80;100588.50;102563;1325;22980;-77
2021/12/27 01:27:57;;;;;;;76.60;34.30;;;;;;;-7.05;65.79;100590.57;102707;1328;22702;-81
2021/12/27 01:30:23;;;;;;;76.10;35.60;;;;;;;-7.07;66.02;100590.42;102124;1332;24222;-79
2021/12/27 01:32:56;;;;;;;76.10;37.60;;;;;;;-7.07;65.85;100588.71;102204;1333;25468;-78
2021/12/27 01:35:24;;;;;;;84.90;38.90;;;;;;;-7.11;65.91;100590.04;101809;1334;25286;-79
2021/12/27 01:37:53;;;;;;;84.00;40.30;;;;;;;-7.08;65.91;100592.45;102410;1328;22650;-77
2021/12/27 01:40:23;;;;;;;84.20;41.00;;;;;;;-7.07;65.91;100595.77;102902;1322;25530;-77
2021/12/27 01:43:11;;;;;;;79.80;37.00;;;;;;;-7.04;65.80;100599.67;102819;1328;25558;-77
2021/12/27 01:45:50;;;;;;;83.20;39.40;;;;;;;-7.09;66.05;100602.48;102511;1328;25242;-77
2021/12/27 01:48:21;;;;;;;77.90;37.30;;;;;;;-7.06;66.16;100606.97;102743;1324;22662;-76
2021/12/27 01:50:51;;;;;;;80.10;40.00;;;;;;;-7.08;66.19;100611.48;102735;1325;22728;-77
2021/12/27 01:53:19;;;;;;;87.40;39.00;;;;;;;-7.07;66.37;100602.61;103256;1319;25252;-77
2021/12/27 01:55:47;;;;;;;86.20;37.50;;;;;;;-6.97;66.37;100607.70;103588;1315;25135;-77
2021/12/27 01:58:14;;;;;;;88.40;40.30;;;;;;;-6.93;66.20;100604.16;103734;1316;25717;-77
2021/12/27 02:00:45;;;;;;;91.80;38.10;;;;;;;-6.95;66.03;100604.21;103707;1319;25233;-77
2021/12/27 02:03:15;;;;;;;88.40;39.70;;;;;;;-6.96;66.06;100606.58;103644;1316;22577;-78
2021/12/27 02:05:42;;;;;;;102.40;45.60;;;;;;;-6.97;66.01;100609.91;103596;1317;24799;-80
2021/12/27 02:08:11;;;;;;;109.60;47.60;;;;;;;-7.08;65.59;100611.93;103024;1325;25658;-80
2021/12/27 02:10:39;;;;;;;93.00;43.90;;;;;;;-7.18;65.65;100612.66;102821;1323;22593;-80
2021/12/27 02:13:08;;;;;;;95.30;45.30;;;;;;;-7.25;65.56;100619.63;103274;1323;22644;-81
2021/12/27 02:15:35;;;;;;;113.30;48.40;;;;;;;-7.27;65.97;100619.29;103019;1324;22752;-79
2021/12/27 02:18:03;;;;;;;103.10;45.50;;;;;;;-7.23;65.88;100623.48;102895;1323;22922;-78
2021/12/27 02:20:34;;;;;;;102.70;44.50;;;;;;;-7.25;66.19;100620.61;103027;1323;23033;-81
2021/12/27 02:23:03;;;;;;;98.70;42.70;;;;;;;-7.17;66.06;100621.81;102989;1323;22569;-81
2021/12/27 02:25:33;;;;;;;101.70;42.80;;;;;;;-7.16;65.88;100616.41;103077;1319;22700;-79
2021/12/27 02:28:03;;;;;;;107.10;45.00;;;;;;;-7.22;65.48;100616.69;103748;1318;24301;-80
2021/12/27 02:30:31;;;;;;;109.40;46.40;;;;;;;-7.22;65.73;100619.48;103683;1319;22590;-81
2021/12/27 02:33:05;;;;;;;124.40;52.40;;;;;;;-7.15;65.99;100620.71;103417;1317;24211;-81
2021/12/27 02:35:45;;;;;;;127.70;54.60;;;;;;;-7.09;65.97;100626.42;103462;1319;24314;-80
2021/12/27 02:38:15;;;;;;;127.30;53.40;;;;;;;-7.03;65.84;100625.45;103409;1318;24210;-80
2021/12/27 02:40:43;;;;;;;120.60;53.70;;;;;;;-6.94;65.81;100621.59;103444;1319;25360;-81
2021/12/27 02:43:13;;;;;;;148.70;58.10;;;;;;;-6.85;65.61;100620.77;103540;1319;23949;-77
2021/12/27 02:45:44;;;;;;;126.20;54.70;;;;;;;-6.76;65.68;100625.80;103486;1317;22707;-76
2021/12/27 02:48:13;;;;;;;131.80;53.60;;;;;;;-6.72;65.52;100625.41;103711;1310;22582;-77
2021/12/27 02:50:42;;;;;;;130.50;54.60;;;;;;;-6.76;64.88;100620.35;103619;1318;23325;-77
2021/12/27 02:53:10;;;;;;;130.80;53.50;;;;;;;-6.77;64.90;100622.03;103464;1319;22535;-76
2021/12/27 02:55:38;;;;;;;112.60;50.60;;;;;;;-6.72;65.13;100616.48;103755;1314;22718;-76
2021/12/27 02:58:06;;;;;;;116.70;49.40;;;;;;;-6.78;64.63;100619.02;103325;1319;25301;-78
2021/12/27 03:00:55;;;;;;;121.40;51.20;;;;;;;-6.86;64.52;100620.89;103506;1319;24283;-77
2021/12/27 03:03:22;;;;;;;110.90;50.00;;;;;;;-6.93;64.48;100614.59;103730;1318;25377;-76
2021/12/27 03:05:50;;;;;;;113.80;49.80;;;;;;;-6.99;64.37;100614.23;103780;1318;25300;-79
2021/12/27 03:08:18;;;;;;;120.90;48.30;;;;;;;-7.03;64.56;100617.41;103596;1319;24389;-76
2021/12/27 03:10:49;;;;;;;96.70;44.30;;;;;;;-6.99;64.81;100613.58;103648;1319;22560;-79
2021/12/27 03:13:19;;;;;;;115.40;49.40;;;;;;;-6.96;64.73;100609.13;103409;1319;23448;-79
2021/12/27 03:15:51;;;;;;;119.90;47.10;;;;;;;-6.92;64.65;100608.36;103727;1319;24329;-79
2021/12/27 03:18:18;;;;;;;110.80;43.90;;;;;;;-6.97;64.57;100607.53;103518;1319;22813;-78
2021/12/27 03:20:45;;;;;;;117.60;48.10;;;;;;;-7.03;64.27;100605.91;103473;1319;22573;-78
2021/12/27 03:23:12;;;;;;;119.30;47.60;;;;;;;-7.11;64.26;100606.12;103507;1318;22666;-79
2021/12/27 03:25:39;;;;;;;122.30;50.10;;;;;;;-7.16;64.45;100604.78;103571;1319;24054;-81
2021/12/27 03:28:07;;;;;;;136.70;52.70;;;;;;;-7.17;64.70;100598.20;103558;1317;23283;-78
2021/12/27 03:30:35;;;;;;;124.20;48.80;;;;;;;-7.13;64.78;100601.54;103755;1316;24765;-81
2021/12/27 03:33:04;;;;;;;141.70;55.50;;;;;;;-7.14;64.68;100600.80;103552;1319;25422;-80
2021/12/27 03:35:36;;;;;;;129.80;48.60;;;;;;;-7.18;64.47;100603.98;103706;1319;24353;-79
2021/12/27 03:38:07;;;;;;;131.40;51.40;;;;;;;-7.20;64.71;100596.94;103547;1319;22571;-80
2021/12/27 03:40:35;;;;;;;135.30;50.90;;;;;;;-7.16;64.88;100597.77;103513;1317;22553;-82
2021/12/27 03:43:02;;;;;;;146.50;56.70;;;;;;;-7.21;64.27;100604.09;103541;1319;22664;-80
2021/12/27 03:45:34;;;;;;;151.70;55.90;;;;;;;-7.30;64.36;100600.77;103604;1318;24314;-79
2021/12/27 03:48:03;;;;;;;143.10;53.40;;;;;;;-7.28;64.68;100599.20;103642;1319;24224;-80
2021/12/27 03:50:30;;;;;;;149.50;57.70;;;;;;;-7.30;64.69;100599.05;103435;1319;22618;-79
2021/12/27 03:52:57;;;;;;;152.50;63.20;;;;;;;-7.30;64.56;100593.91;103456;1318;25351;-82
2021/12/27 03:55:25;;;;;;;176.20;65.90;;;;;;;-7.23;64.84;100591.48;103359;1318;22710;-78
2021/12/27 03:58:06;;;;;;;158.20;60.40;;;;;;;-7.19;64.51;100588.15;103640;1318;24137;-76
2021/12/27 04:03:13;;;;;;;171.20;65.50;;;;;;;-7.11;64.65;100587.61;103527;1318;24437;-77
2021/12/27 04:05:41;;;;;;;155.20;61.70;;;;;;;-7.01;64.64;100589.83;103313;1318;22568;-79
2021/12/27 04:08:12;;;;;;;149.40;61.50;;;;;;;-6.96;64.36;100587.56;103416;1318;22574;-78
2021/12/27 04:10:41;;;;;;;156.10;62.20;;;;;;;-6.92;64.14;100586.27;103735;1312;23940;-79
2021/12/27 04:13:11;;;;;;;154.00;60.10;;;;;;;-6.88;64.37;100583.08;103440;1318;25399;-78
2021/12/27 04:15:41;;;;;;;138.60;55.50;;;;;;;-6.87;64.10;100582.64;103689;1317;23214;-80
2021/12/27 04:18:11;;;;;;;145.70;54.20;;;;;;;-6.88;64.01;100589.23;103596;1316;22574;-78
2021/12/27 04:20:39;;;;;;;160.50;57.10;;;;;;;-6.88;64.05;100587.00;103577;1317;22564;-81
2021/12/27 04:23:07;;;;;;;137.80;56.40;;;;;;;-6.96;63.58;100589.13;103854;1314;24718;-78
2021/12/27 04:25:34;;;;;;;126.50;52.60;;;;;;;-7.11;63.57;100591.23;103807;1317;24563;-79
2021/12/27 04:28:02;;;;;;;140.20;55.10;;;;;;;-7.12;63.83;100590.96;103748;1317;26537;-78
2021/12/27 04:30:29;;;;;;;133.90;52.30;;;;;;;-7.11;63.83;100590.39;103645;1317;24225;-78
2021/12/27 04:32:56;;;;;;;126.50;50.00;;;;;;;-7.11;63.72;100589.17;103416;1317;22584;-80
2021/12/27 04:35:28;;;;;;;122.30;49.00;;;;;;;-7.14;63.70;100580.73;103429;1318;22573;-78
2021/12/27 04:37:55;;;;;;;138.00;50.30;;;;;;;-7.19;63.65;100578.35;103167;1323;25468;-77
2021/12/27 04:40:27;;;;;;;127.70;51.40;;;;;;;-7.21;63.75;100574.14;103210;1320;25309;-77
2021/12/27 04:43:18;;;;;;;106.90;47.10;;;;;;;-7.32;63.46;100577.67;102862;1322;23061;-77
2021/12/27 04:45:47;;;;;;;113.60;45.50;;;;;;;-7.41;63.63;100578.80;103124;1323;24196;-84
2021/12/27 04:48:17;;;;;;;94.70;44.50;;;;;;;-7.43;63.86;100576.59;103143;1320;24401;-81
2021/12/27 04:50:44;;;;;;;109.20;46.60;;;;;;;-7.49;63.98;100569.95;103229;1323;22689;-79
2021/12/27 04:53:12;;;;;;;126.50;49.70;;;;;;;-7.53;63.84;100570.53;102915;1319;27145;-80
2021/12/27 04:55:39;;;;;;;132.50;52.40;;;;;;;-7.55;64.05;100570.55;102866;1319;24234;-81
2021/12/27 04:58:09;;;;;;;129.90;52.60;;;;;;;-7.53;64.24;100572.74;103808;1317;25590;-80
2021/12/27 05:00:38;;;;;;;135.00;52.50;;;;;;;-7.46;64.37;100568.60;103466;1317;22567;-80
2021/12/27 05:03:06;;;;;;;128.90;51.30;;;;;;;-7.47;64.05;100568.38;103448;1320;22789;-80
2021/12/27 05:05:34;;;;;;;112.50;47.00;;;;;;;-7.43;64.53;100568.62;103404;1319;22900;-79
2021/12/27 05:08:02;;;;;;;119.70;49.60;;;;;;;-7.29;64.41;100566.76;103589;1319;22709;-80
2021/12/27 05:10:30;;;;;;;114.70;48.70;;;;;;;-7.18;64.33;100568.32;103418;1320;24094;-79
2021/12/27 05:12:57;;;;;;;105.90;48.20;;;;;;;-7.08;64.59;100571.73;103583;1318;24244;-78
2021/12/27 05:15:25;;;;;;;129.40;49.40;;;;;;;-7.08;64.19;100571.52;103410;1319;23994;-79
2021/12/27 05:17:52;;;;;;;111.80;44.30;;;;;;;-7.09;64.12;100569.97;103764;1318;24285;-78
2021/12/27 05:20:18;;;;;;;112.70;46.30;;;;;;;-7.09;64.08;100569.09;103573;1317;22729;-79
2021/12/27 05:22:46;;;;;;;103.90;43.90;;;;;;;-7.07;64.18;100566.82;103792;1317;22700;-83
2021/12/27 05:25:16;;;;;;;93.00;42.70;;;;;;;-7.07;64.06;100568.17;103749;1317;24461;-84
2021/12/27 05:27:44;;;;;;;103.90;44.80;;;;;;;-7.10;64.03;100568.69;103488;1316;24304;-81
2021/12/27 05:30:18;;;;;;;110.10;43.10;;;;;;;-7.12;63.87;100573.04;103514;1319;25544;-83
2021/12/27 05:32:45;;;;;;;111.60;45.40;;;;;;;-7.21;63.73;100575.69;103497;1319;25258;-82
2021/12/27 05:35:14;;;;;;;98.40;42.30;;;;;;;-7.30;63.67;100579.54;103438;1319;24271;-82
2021/12/27 05:37:42;;;;;;;104.30;41.00;;;;;;;-7.35;64.20;100581.80;103268;1320;22586;-83
2021/12/27 05:40:16;;;;;;;106.20;43.80;;;;;;;-7.34;64.16;100585.79;102932;1323;24320;-83
2021/12/27 05:42:43;;;;;;;98.20;40.70;;;;;;;-7.45;63.84;100584.06;102955;1323;22669;-83
2021/12/27 05:45:10;;;;;;;95.80;41.60;;;;;;;-7.52;64.22;100586.36;103030;1322;25249;-81
2021/12/27 05:47:38;;;;;;;103.10;41.90;;;;;;;-7.51;64.41;100586.70;103398;1323;24226;-83
2021/12/27 05:50:06;;;;;;;86.30;39.10;;;;;;;-7.53;64.35;100584.74;104834;1324;22813;-82
2021/12/27 05:52:34;;;;;;;111.70;41.80;;;;;;;-7.57;64.28;100583.42;103321;1323;25304;-75
2021/12/27 05:55:03;;;;;;;124.10;47.60;;;;;;;-7.58;64.30;100578.91;102928;1325;167262;-82
2021/12/27 05:57:31;;;;;;;141.00;50.90;;;;;;;-7.56;64.44;100579.00;103113;1320;24251;-80
2021/12/27 05:59:58;;;;;;;130.00;51.40;;;;;;;-7.58;64.10;100576.86;103279;1319;24231;-83
2021/12/27 06:02:25;;;;;;;124.80;50.20;;;;;;;-7.60;64.06;100573.66;103474;1318;22837;-78
2021/12/27 06:04:53;;;;;;;119.60;48.40;;;;;;;-7.49;64.65;100569.89;103205;1320;24105;-80
2021/12/27 06:07:20;;;;;;;123.60;48.80;;;;;;;-7.37;64.52;100575.19;103369;1319;22748;-79
2021/12/27 06:09:49;;;;;;;115.50;48.50;;;;;;;-7.27;64.42;100578.23;102766;1326;23993;-79
2021/12/27 06:12:16;;;;;;;133.10;50.10;;;;;;;-7.17;64.28;100582.45;102962;1326;25227;-79
2021/12/27 06:14:43;;;;;;;111.80;48.20;;;;;;;-7.11;64.07;100586.60;102830;1326;22750;-80
2021/12/27 06:17:11;;;;;;;116.30;49.40;;;;;;;-7.09;64.13;100588.08;102807;1320;24380;-77
2021/12/27 06:19:38;;;;;;;111.50;45.50;;;;;;;-6.99;63.85;100587.56;103383;1325;25265;-82
2021/12/27 06:22:05;;;;;;;119.70;47.50;;;;;;;-7.03;63.50;100586.95;102953;1325;25257;-87
2021/12/27 06:24:32;;;;;;;114.10;45.40;;;;;;;-7.11;63.40;100588.83;102932;1325;22604;-83
2021/12/27 06:26:59;;;;;;;118.00;45.90;;;;;;;-7.15;63.66;100586.66;102768;1325;25692;-83
2021/12/27 06:29:26;;;;;;;92.30;41.00;;;;;;;-7.19;63.37;100585.24;103270;1319;22558;-83
2021/12/27 06:31:53;;;;;;;112.20;45.30;;;;;;;-7.28;63.34;100585.68;103153;1319;25233;-83
2021/12/27 06:34:21;;;;;;;101.20;41.90;;;;;;;-7.34;63.82;100586.48;103319;1319;22894;-82
2021/12/27 06:36:48;;;;;;;100.90;42.20;;;;;;;-7.40;63.68;100587.10;103152;1319;22612;-81
2021/12/27 06:39:15;;;;;;;96.60;42.30;;;;;;;-7.44;63.71;100588.18;103398;1319;24273;-83
2021/12/27 06:41:42;;;;;;;104.70;43.50;;;;;;;-7.54;63.62;100587.02;103294;1319;24215;-83
2021/12/27 06:44:09;;;;;;;120.40;43.00;;;;;;;-7.60;63.75;100589.38;103136;1320;23737;-85
2021/12/27 06:46:36;;;;;;;115.10;42.30;;;;;;;-7.64;63.70;100588.46;103356;1320;22706;-82
2021/12/27 06:49:03;;;;;;;101.90;43.50;;;;;;;-7.69;63.82;100590.52;103412;1320;24307;-83
2021/12/27 06:51:30;;;;;;;102.50;41.60;;;;;;;-7.67;64.10;100593.21;103828;1320;22656;-82
2021/12/27 06:53:57;;;;;;;121.80;47.30;;;;;;;-7.68;63.89;100596.70;104064;1318;22580;-85
2021/12/27 06:56:24;;;;;;;126.50;51.40;;;;;;;-7.64;64.13;100598.70;104060;1319;22566;-83
2021/12/27 06:58:51;;;;;;;121.70;49.20;;;;;;;-7.57;64.21;100596.41;103535;1319;25618;-84
2021/12/27 07:01:18;;;;;;;111.40;47.70;;;;;;;-7.54;63.91;100599.68;103404;1319;26505;-83
2021/12/27 07:03:45;;;;;;;110.60;48.20;;;;;;;-7.57;63.62;100600.05;103401;1320;25363;-82
2021/12/27 07:06:12;;;;;;;121.80;49.80;;;;;;;-7.53;63.79;100600.77;103414;1319;22672;-83
2021/12/27 07:08:39;;;;;;;112.60;47.10;;;;;;;-7.52;63.96;100602.43;103270;1319;22893;-81
2021/12/27 07:11:07;;;;;;;107.50;45.30;;;;;;;-7.48;63.87;100596.66;103675;1319;25246;-82
2021/12/27 07:13:34;;;;;;;124.60;48.40;;;;;;;-7.41;63.95;100598.34;103502;1319;22609;-82
2021/12/27 07:16:01;;;;;;;104.90;44.80;;;;;;;-7.41;63.66;100594.92;103399;1319;25666;-83
2021/12/27 07:18:28;;;;;;;106.10;43.60;;;;;;;-7.45;63.49;100590.20;103362;1319;24988;-82
2021/12/27 07:20:56;;;;;;;98.80;40.70;;;;;;;-7.48;63.58;100596.18;103437;1318;24344;-81
2021/12/27 07:23:23;;;;;;;103.50;41.70;;;;;;;-7.49;63.57;100600.36;103441;1319;26533;-81
2021/12/27 07:25:50;;;;;;;86.50;39.10;;;;;;;-7.44;63.90;100605.31;103538;1319;22555;-83
2021/12/27 07:28:17;;;;;;;82.00;39.30;;;;;;;-7.43;63.63;100603.16;103422;1319;25364;-82
2021/12/27 07:30:44;;;;;;;81.90;38.60;;;;;;;-7.43;63.62;100603.98;103678;1319;22596;-81
2021/12/27 07:33:11;;;;;;;98.80;38.80;;;;;;;-7.40;63.75;100604.89;103266;1323;24240;-81
2021/12/27 07:35:39;;;;;;;82.30;36.30;;;;;;;-7.35;63.47;100602.18;103070;1323;25251;-82
2021/12/27 07:38:06;;;;;;;87.00;40.10;;;;;;;-7.34;63.60;100604.48;103069;1323;25328;-80
2021/12/27 07:40:34;;;;;;;83.60;36.40;;;;;;;-7.30;63.65;100604.19;103406;1323;24305;-80
2021/12/27 07:43:01;;;;;;;71.00;34.60;;;;;;;-7.27;63.55;100603.70;103160;1323;25229;-89
2021/12/27 07:45:28;;;;;;;77.60;34.30;;;;;;;-7.28;63.47;100606.21;103287;1323;22697;-82
2021/12/27 07:47:56;;;;;;;73.20;33.90;;;;;;;-7.28;63.55;100607.42;102936;1323;26868;-82
2021/12/27 07:50:24;;;;;;;91.60;39.90;;;;;;;-7.26;63.42;100609.42;103263;1323;24356;-82
2021/12/27 07:52:51;;;;;;;85.90;34.30;;;;;;;-7.24;63.64;100611.47;103484;1320;22593;-82
2021/12/27 07:55:19;;;;;;;80.60;34.50;;;;;;;-7.21;63.72;100601.31;103546;1319;22736;-84
2021/12/27 07:57:46;;;;;;;80.10;33.80;;;;;;;-7.16;63.55;100603.73;103425;1319;22935;-83
2021/12/27 08:00:14;;;;;;;65.50;29.10;;;;;;;-7.15;63.54;100604.30;103434;1319;22596;-82
2021/12/27 08:02:42;;;;;;;67.80;32.70;;;;;;;-7.14;63.80;100598.86;103395;1320;22577;-83
2021/12/27 08:05:09;;;;;;;67.20;32.10;;;;;;;-7.06;63.80;100600.94;103417;1319;26520;-83
2021/12/27 08:07:37;;;;;;;69.40;32.50;;;;;;;-7.00;63.85;100600.52;103357;1319;22673;-82
2021/12/27 08:10:05;;;;;;;73.30;30.10;;;;;;;-6.92;63.79;100605.23;103380;1321;22669;-83
2021/12/27 08:12:32;;;;;;;66.70;31.80;;;;;;;-6.87;63.83;100607.45;103604;1319;24029;-83
2021/12/27 08:14:59;;;;;;;64.50;29.20;;;;;;;-6.80;63.80;100608.61;104128;1320;25236;-83
2021/12/27 08:17:26;;;;;;;70.70;31.80;;;;;;;-6.74;63.91;100608.46;103547;1319;25215;-83
2021/12/27 08:19:53;;;;;;;89.50;35.90;;;;;;;-6.71;63.72;100613.67;103276;1319;25374;-84
2021/12/27 08:22:20;;;;;;;68.50;32.40;;;;;;;-6.64;63.60;100616.45;103305;1320;22732;-82
2021/12/27 08:24:49;;;;;;;74.70;33.50;;;;;;;-6.56;63.35;100614.58;103442;1319;22633;-83
2021/12/27 08:27:17;;;;;;;70.30;32.10;;;;;;;-6.51;63.53;100607.71;103343;1319;23102;-83
2021/12/27 08:29:45;;;;;;;71.90;32.70;;;;;;;-6.42;63.46;100607.76;103291;1319;22599;-83
2021/12/27 08:32:12;;;;;;;66.00;29.50;;;;;;;-6.31;63.48;100610.80;103569;1319;22593;-83
2021/12/27 08:34:39;;;;;;;63.70;29.30;;;;;;;-6.23;63.46;100611.51;103560;1319;22596;-81
2021/12/27 08:37:06;;;;;;;66.90;30.40;;;;;;;-6.13;63.34;100615.50;103466;1320;22728;-80
2021/12/27 08:39:34;;;;;;;58.30;30.40;;;;;;;-6.08;63.37;100616.70;103491;1319;22937;-82
2021/12/27 08:42:07;;;;;;;69.10;31.40;;;;;;;-5.98;63.05;100613.17;103411;1319;26674;-81
2021/12/27 08:44:35;;;;;;;62.10;31.30;;;;;;;-5.86;63.25;100615.42;103499;1320;22593;-81
2021/12/27 08:47:03;;;;;;;59.00;27.80;;;;;;;-5.75;63.18;100614.17;103377;1320;25246;-81
2021/12/27 08:49:30;;;;;;;45.50;23.90;;;;;;;-5.64;63.00;100612.45;103454;1319;24519;-82
2021/12/27 08:51:57;;;;;;;55.30;28.20;;;;;;;-5.58;62.41;100607.27;103600;1319;22558;-83
2021/12/27 08:54:24;;;;;;;53.90;27.20;;;;;;;-5.51;62.61;100610.61;103702;1319;22577;-82
2021/12/27 08:56:51;;;;;;;66.10;30.40;;;;;;;-5.43;62.56;100608.17;103379;1320;22577;-82
2021/12/27 08:59:18;;;;;;;60.60;29.00;;;;;;;-5.29;62.51;100612.05;103457;1319;25376;-81
2021/12/27 09:01:45;;;;;;;65.30;32.00;;;;;;;-5.18;62.21;100615.45;103448;1319;25323;-80
2021/12/27 09:04:13;;;;;;;67.00;31.40;;;;;;;-5.06;61.89;100612.73;103678;1319;24182;-81
2021/12/27 09:06:41;;;;;;;55.60;29.60;;;;;;;-4.93;61.80;100611.86;103516;1319;22730;-81
2021/12/27 09:09:10;;;;;;;61.50;33.30;;;;;;;-4.79;61.53;100612.67;103405;1319;23425;-82
2021/12/27 09:11:37;;;;;;;73.20;36.90;;;;;;;-4.69;61.12;100612.20;103724;1319;25245;-81
2021/12/27 09:14:04;;;;;;;74.90;33.40;;;;;;;-4.59;61.14;100605.69;103531;1319;22569;-83
2021/12/27 09:16:44;;;;;;;77.80;39.10;;;;;;;-4.45;60.79;100605.06;104062;1319;24151;-83
2021/12/27 09:19:12;;;;;;;79.20;36.50;;;;;;;-4.31;60.48;100602.05;103615;1320;24320;-83
2021/12/27 09:21:39;;;;;;;53.60;30.50;;;;;;;-4.17;60.41;100601.95;103416;1314;22577;-83
2021/12/27 09:24:06;;;;;;;68.30;34.30;;;;;;;-4.11;59.77;100599.52;103362;1319;22577;-82
2021/12/27 09:26:35;;;;;;;72.40;35.50;;;;;;;-4.08;59.75;100598.30;103355;1319;25844;-83
2021/12/27 09:29:02;;;;;;;73.30;38.60;;;;;;;-3.94;59.65;100594.53;103214;1320;26524;-82
2021/12/27 09:31:29;;;;;;;60.00;33.00;;;;;;;-3.82;59.51;100587.59;103496;1319;25371;-82
2021/12/27 09:33:59;;;;;;;76.60;37.50;;;;;;;-3.72;59.08;100581.58;103076;1319;26524;-83
2021/12/27 09:36:26;;;;;;;64.90;34.30;;;;;;;-3.55;59.26;100578.29;103542;1319;22659;-81
2021/12/27 09:38:53;;;;;;;68.30;34.80;;;;;;;-3.41;58.80;100573.30;103140;1320;22616;-82
2021/12/27 09:41:24;;;;;;;69.90;33.60;;;;;;;-3.32;58.61;100574.47;103356;1319;25240;-81
2021/12/27 09:43:54;;;;;;;75.30;37.10;;;;;;;-3.19;58.57;100568.52;103300;1320;25312;-80
2021/12/27 09:46:22;;;;;;;76.00;38.50;;;;;;;-3.04;58.41;100567.55;103431;1319;23029;-79
2021/12/27 09:48:53;;;;;;;86.90;40.10;;;;;;;-2.87;58.11;100568.55;103453;1319;26256;-82
2021/12/27 09:51:20;;;;;;;71.70;36.00;;;;;;;-2.70;57.91;100569.33;103425;1319;24416;-82
2021/12/27 09:53:48;;;;;;;68.80;36.10;;;;;;;-2.55;57.63;100568.86;102847;1326;25372;-82
2021/12/27 09:56:15;;;;;;;68.30;37.50;;;;;;;-2.41;57.30;100566.36;102870;1326;24258;-80
2021/12/27 09:58:42;;;;;;;80.00;38.30;;;;;;;-2.32;56.96;100568.70;102583;1326;22555;-82
2021/12/27 10:01:10;;;;;;;76.10;37.90;;;;;;;-2.15;56.81;100570.14;102813;1328;22569;-81
2021/12/27 10:03:49;;;;;;;77.30;38.10;;;;;;;-1.92;56.50;100568.22;102715;1326;22592;-81
2021/12/27 10:06:18;;;;;;;75.90;39.50;;;;;;;-1.77;55.82;100567.52;102628;1328;23626;-82
2021/12/27 10:08:51;;;;;;;63.60;35.00;;;;;;;-1.63;55.70;100565.02;102797;1326;25452;-81
2021/12/27 10:11:20;;;;;;;68.40;36.40;;;;;;;-1.56;55.15;100559.27;102807;1319;22799;-81
2021/12/27 10:13:58;;;;;;;58.20;34.20;;;;;;;-1.51;55.01;100550.33;103292;1319;24216;-81
2021/12/27 10:16:27;;;;;;;68.00;35.70;;;;;;;-1.41;54.66;100544.67;102902;1325;22908;-80
2021/12/27 10:19:00;;;;;;;79.70;39.70;;;;;;;-1.36;54.20;100541.25;103210;1325;25224;-81
2021/12/27 10:21:28;;;;;;;74.20;37.30;;;;;;;-1.27;54.23;100543.71;102992;1325;22568;-81
2021/12/27 10:24:04;;;;;;;72.40;39.20;;;;;;;-1.13;54.01;100534.21;102938;1325;26643;-81
2021/12/27 10:26:32;;;;;;;65.60;35.20;;;;;;;-0.99;53.84;100536.02;103159;1325;22641;-82
2021/12/27 10:29:12;;;;;;;71.60;39.10;;;;;;;-0.97;53.24;100531.05;103151;1325;22720;-81
2021/12/27 10:31:54;;;;;;;76.50;38.60;;;;;;;-0.88;53.60;100529.52;103380;1325;22642;-81
2021/12/27 10:34:24;;;;;;;67.60;35.50;;;;;;;-0.72;53.24;100523.92;102888;1319;22899;-82
2021/12/27 10:37:00;;;;;;;62.60;35.90;;;;;;;-0.62;52.76;100517.20;103579;1319;22582;-81
2021/12/27 10:39:49;;;;;;;74.60;38.70;;;;;;;-0.53;52.74;100515.33;103881;1319;25395;-82
2021/12/27 10:42:27;;;;;;;65.60;35.20;;;;;;;-0.34;52.45;100507.89;103013;1319;25934;-82
2021/12/27 10:45:00;;;;;;;65.70;36.80;;;;;;;-0.17;52.25;100511.94;103518;1318;24302;-81
2021/12/27 10:47:35;;;;;;;64.70;37.00;;;;;;;0.00;52.05;100506.50;103235;1319;26507;-82
2021/12/27 10:50:31;;;;;;;69.30;38.10;;;;;;;0.21;51.93;100502.53;103419;1311;24292;-81
2021/12/27 10:53:06;;;;;;;62.70;35.50;;;;;;;0.40;51.35;100501.27;103504;1319;22562;-81
2021/12/27 10:55:42;;;;;;;70.80;36.50;;;;;;;0.53;50.97;100493.75;103572;1319;25355;-80
2021/12/27 10:58:18;;;;;;;67.50;36.40;;;;;;;0.62;50.82;100488.16;103554;1319;26542;-81
2021/12/27 11:01:03;;;;;;;71.40;35.90;;;;;;;0.71;50.44;100482.56;103315;1319;24308;-82
2021/12/27 11:03:37;;;;;;;64.70;36.80;;;;;;;0.78;50.28;100476.89;103394;1319;24307;-82
2021/12/27 11:06:07;;;;;;;66.40;37.10;;;;;;;0.96;50.26;100476.23;103482;1319;22635;-80
2021/12/27 11:08:38;;;;;;;64.40;36.40;;;;;;;0.89;49.34;100472.20;103589;1319;25537;-82
2021/12/27 11:11:06;;;;;;;63.30;35.20;;;;;;;0.85;49.89;100474.83;103182;1319;25225;-82
2021/12/27 11:13:34;;;;;;;71.30;37.00;;;;;;;0.97;49.87;100471.41;103003;1324;25384;-82
2021/12/27 11:16:02;;;;;;;55.40;31.40;;;;;;;1.16;49.75;100474.23;102943;1325;24859;-81
2021/12/27 11:18:30;;;;;;;57.40;32.80;;;;;;;1.30;49.38;100472.94;102718;1325;25497;-80